Acmar, Alabama
Current Conditions -  °F | °C
As of 11:53 AM on Thursday 23 Oct 2014 (Local Time) from KBHM Reporting Station
Scattered Clouds Scattered Clouds  
Wind Chill: 66°   Ceiling: Unl
Heat Index: 66°   Visibility: 10mi
Dew Point: 41°   Wind: 7mph
Humidity: 40%   Direction: 30°NNE
Pressure: 30.16"   Gusts: NA
Location:  33.6013°N, 86.5003°W
Report Text: KBHM 231653Z 03006KT 10SM SCT250 19/05 A3016 RMK AO2 SLP209 T01890050
Loading
Personal Weather Stations






























Interactive Weather Map New forecast layout! Learn more

10-Day Weather Forecast

Advertisements
Track Severe Weather on mobile